Observations for LAS VEGAS MCCARRAN, NV (LAS)

KLAS 200656Z 29006KT 10SM BKN110 BKN180 OVC250 18/M01 A2991 RMK AO2 SLP111 VCSH T01781006   
KLAS 200556Z 30006KT 10SM FEW110 BKN190 BKN250 19/M02 A2992 RMK AO2 SLP115 T01891017 10244 20189 50000  
KLAS 200456Z 13003KT 10SM FEW110 SCT220 OVC250 21/M02 A2993 RMK AO2 SLP118 T02061022
KLAS 200356Z 07004KT 10SM FEW110 BKN220 BKN250 21/M03 A2991 RMK AO2 SLP115 T02061028
KLAS 200256Z 07006KT 10SM FEW110 BKN220 BKN250 21/M04 A2992 RMK AO2 SLP118 T02111039 55002  
KLAS 200156Z 08007KT 10SM FEW110 BKN200 BKN250 23/M04 A2991 RMK AO2 SLP116 T02281044
KLAS 200056Z 05008KT 10SM FEW110 BKN200 BKN250 23/M04 A2991 RMK AO2 SLP114 T02331039
KLAS 192356Z 06008KT 10SM FEW110 BKN200 BKN250 24/M04 A2992 RMK AO2 SLP118 T02441044 10256 20200 56024  
KLAS 192256Z 04008KT 10SM FEW110 BKN220 24/M05 A2994 RMK AO2 SLP125 T02441050   
KLAS 192156Z 06004KT 10SM FEW110 BKN220 24/M04 A2996 RMK AO2 SLP130 T02441044   
KLAS 192056Z 02006KT 10SM FEW110 BKN220 24/M04 A3000 RMK AO2 SLP145 T02391039 58020 
KLAS 191956Z 05005KT 10SM FEW110 BKN220 23/M04 A3002 RMK AO2 SLP153 T02281039   
KLAS 191856Z 04011KT 10SM FEW110 BKN250 23/M03 A3004 RMK AO2 SLP159 T02281033   
KLAS 191756Z 06008KT 10SM FEW110 BKN250 21/M03 A3006 RMK AO2 SLP166 T02061033 10206 20128 50005 
KLAS 191656Z VRB03KT 10SM FEW110 SCT250 19/M03 A3007 RMK AO2 SLP167 T01941028   
KLAS 191556Z 00000KT 10SM FEW110 SCT250 18/M01 A3006 RMK AO2 SLP165 T01781006   
KLAS 191456Z 19004KT 10SM SCT250 14/00 A3005 RMK AO2 SLP162 T01440000 51013 
KLAS 191356Z 21005KT 10SM SCT250 13/M01 A3003 RMK AO2 SLP157 T01331006  
KLAS 191256Z 00000KT 10SM CLR 13/00 A3003 RMK AO2 SLP155 T01330000  
KLAS 191156Z 22003KT 10SM CLR 13/00 A3001 RMK AO2 SLP147 T01280000 10178 20128 53002
KLAS 191056Z 00000KT 10SM CLR 13/00 A2999 RMK AO2 SLP140 T01280000  
KLAS 190956Z 21005KT 10SM CLR 14/M01 A2999 RMK AO2 SLP141 T01391006 
KLAS 190856Z 21003KT 10SM CLR 14/M01 A3000 RMK AO2 SLP145 T01441006 57002   
KLAS 190756Z 20004KT 10SM CLR 16/M01 A3000 RMK AO2 SLP145 T01561006 402560111   
KLAS 190656Z 27005KT 10SM CLR 17/M01 A3001 RMK AO2 SLP147 T01671011